La Granja, Argentina
Current Conditions -  °F | °C
As of 12:00 AM on Thursday 23 Oct 2014 (Local Time) from SACO Reporting Station
Clear Clear  
Wind Chill: 72°   Ceiling: Unl
Heat Index: 72°   Visibility: 6mi
Dew Point: 46°   Wind: 9mph
Humidity: 41%   Direction: 360°N
Pressure: 30.06"   Gusts: NA
Location:  31.02°S, 64.27°W
Report Text: SACO 230300Z 36008KT CAVOK 22/08 Q1018
Loading
Personal Weather Stations






























Interactive Weather Map New forecast layout! Learn more

10-Day Weather Forecast

Advertisements
Track Severe Weather on mobile